^^
Datos históricos de la estación: Murcia-Puente Tocinos
Diario Informe para Diciembre 7, 2019 Unidades:  Ingés    Métrico   Ambas
Diario Semanal Mensual Anual
  Máxima: Mínima: Promedio:
Temperatura: 61.7 °F 49.1 °F 53.8 °F
Punto de rocio: 50.9 °F 46 °F 48.4 °F
Humedad: 92.7% 62% 82%
Velocidad viento: 5.2mph 0mph 2.7mph
Racha viento: 13mph - -
Viento- - SSO
Presión: 30.2 in 30.1 in -
Precipitación: 0 in    
 
 
Tabla de datos para Diciembre 7, 2019
Hora Temperatura Punto de rocio Presión Viento Velocidad viento Racha viento Humedad Intensidad lluvia(por hora) Nubes
00:04 53.8 °F 50.9 °F 30.2 in Calm     90% 0 in
00:09 53.8 °F 50.7 °F 30.2 in Calm     89.5% 0 in
00:14 53.8 °F 50.5 °F 30.2 in Calm     89% 0 in
00:19 53.4 °F 50.2 °F 30.2 in Calm     88.4% 0 in
00:24 53.2 °F 50 °F 30.2 in Calm     88.8% 0 in
00:29 53.1 °F 49.8 °F 30.2 in Calm     89% 0 in
00:34 53.1 °F 50 °F 30.2 in Calm     89.5% 0 in
00:39 52.9 °F 50 °F 30.2 in Calm     90% 0 in
00:44 52.9 °F 50 °F 30.2 in Calm     90.1% 0 in
00:49 52.7 °F 50.2 °F 30.2 in Calm     91% 0 in
00:54 52.7 °F 50.2 °F 30.2 in Calm     91% 0 in
00:59 52.7 °F 50.2 °F 30.2 in Calm     91% 0 in
01:04 52.7 °F 50.2 °F 30.2 in Calm     91% 0 in
01:09 52.7 °F 50.2 °F 30.2 in Calm     91% 0 in
01:14 52.7 °F 50.2 °F 30.2 in Calm     91% 0 in
01:19 52.7 °F 50.2 °F 30.2 in Calm     91% 0 in
01:24 52.7 °F 50 °F 30.2 in Calm     91% 0 in
01:29 52.5 °F 50 °F 30.2 in Calm     91% 0 in
01:34 52.3 °F 50 °F 30.2 in Calm     91% 0 in
01:39 52.3 °F 49.8 °F 30.2 in Calm     91% 0 in
01:44 52.2 °F 49.6 °F 30.2 in Calm     91.1% 0 in
01:49 52.2 °F 49.8 °F 30.2 in Calm     92% 0 in
01:54 52 °F 49.5 °F 30.2 in Calm   4 mph 91.3% 0 in
01:59 51.8 °F 49.5 °F 30.2 in Calm   5 mph 92% 0 in
02:04 51.6 °F 49.5 °F 30.2 in Oeste 1.6 mph 5 mph 92% 0 in
02:09 51.6 °F 49.5 °F 30.2 in Oeste 2 mph 3 mph 92% 0 in
02:14 51.6 °F 49.6 °F 30.2 in SO 0.5 mph 4 mph 92.7% 0 in
02:19 52 °F 49.6 °F 30.2 in Calm   5 mph 92.1% 0 in
02:24 52 °F 49.8 °F 30.2 in SO 1.4 mph 5 mph 92.3% 0 in
02:29 52.2 °F 50 °F 30.2 in SO 1.8 mph 5.2 mph 92.6% 0 in
02:34 52.2 °F 49.8 °F 30.2 in SO 1.9 mph 5.8 mph 92% 0 in
02:39 52.2 °F 50 °F 30.2 in OSO 2 mph 6 mph 92% 0 in
02:44 52.3 °F 49.8 °F 30.2 in OSO 3.5 mph 6.9 mph 90.9% 0 in
02:49 52.3 °F 49.5 °F 30.2 in Oeste 4 mph 7 mph 89.6% 0 in
02:54 52.3 °F 49.1 °F 30.2 in Oeste 4.2 mph 7 mph 88.8% 0 in
02:59 52.3 °F 48.9 °F 30.2 in OSO 4.3 mph 5 mph 88% 0 in
03:04 52.2 °F 48.7 °F 30.2 in SO 3.2 mph 5 mph 88% 0 in
03:09 52.2 °F 48.7 °F 30.2 in SO 2.9 mph 5 mph 88% 0 in
03:14 52.3 °F 48.9 °F 30.2 in SO 2.9 mph 6.2 mph 88% 0 in
03:19 52.5 °F 48.9 °F 30.2 in SO 2.9 mph 6.4 mph 87.4% 0 in
03:24 52.5 °F 48.7 °F 30.2 in SO 3.9 mph 7.4 mph 87% 0 in
03:29 52.7 °F 48.7 °F 30.2 in SO 4.3 mph 7 mph 86.4% 0 in
03:34 52.9 °F 48.7 °F 30.2 in OSO 4.6 mph 7 mph 86% 0 in
03:39 52.9 °F 48.6 °F 30.2 in OSO 4.7 mph 7 mph 85% 0 in
03:44 52.9 °F 48.6 °F 30.2 in OSO 3.9 mph 6 mph 85% 0 in
03:49 52.9 °F 48.6 °F 30.2 in OSO 3.6 mph 8.1 mph 85% 0 in
03:54 52.7 °F 48.4 °F 30.2 in OSO 3.2 mph 8.1 mph 85% 0 in
03:59 52.9 °F 48.4 °F 30.2 in Oeste 3.1 mph 8.1 mph 84.9% 0 in
04:04 52.9 °F 48.2 °F 30.2 in OSO 3.5 mph 8 mph 84% 0 in
04:09 52.9 °F 48.2 °F 30.2 in Sur 3.6 mph 5 mph 84.3% 0 in
04:14 52.3 °F 48 °F 30.2 in Sur 3 mph 6.2 mph 85.1% 0 in
04:19 52 °F 48 °F 30.2 in Sur 2.9 mph 6.4 mph 86.2% 0 in
04:24 51.4 °F 47.8 °F 30.2 in SSE 3.9 mph 7 mph 87.4% 0 in
04:29 51.3 °F 47.8 °F 30.2 in Sur 4.3 mph 6 mph 88.2% 0 in
04:34 51.1 °F 48 °F 30.2 in Sur 4.1 mph 6 mph 89% 0 in
04:39 51.1 °F 48 °F 30.2 in Sur 4 mph 6 mph 89.2% 0 in
04:44 50.9 °F 48.2 °F 30.2 in SSO 3.7 mph 6.2 mph 90% 0 in
04:49 50.9 °F 48 °F 30.2 in SSO 3.6 mph 6.2 mph 90% 0 in
04:54 50.9 °F 48.2 °F 30.2 in SSO 4.1 mph 7.4 mph 90% 0 in
04:59 51.1 °F 48 °F 30.2 in SSO 4.3 mph 7 mph 89.4% 0 in
05:04 50.9 °F 47.8 °F 30.2 in SSO 4.6 mph 7 mph 89% 0 in
05:09 50.9 °F 47.8 °F 30.2 in SSO 4.7 mph 7 mph 89% 0 in
05:14 50.9 °F 47.8 °F 30.2 in SSO 4.4 mph 7 mph 89% 0 in
05:19 51.1 °F 47.8 °F 30.2 in SSO 4.3 mph 6.2 mph 89% 0 in
05:24 51.1 °F 48 °F 30.2 in SO 3.8 mph 6 mph 89% 0 in
05:29 50.9 °F 47.8 °F 30.2 in SO 3.6 mph 6 mph 89% 0 in
05:34 50.9 °F 47.8 °F 30.2 in SO 3.2 mph 5 mph 89% 0 in
05:39 50.9 °F 47.8 °F 30.2 in SO 3.1 mph 6.9 mph 89% 0 in
05:44 50.7 °F 47.7 °F 30.2 in SO 3.5 mph 7 mph 89% 0 in
05:49 50.7 °F 47.7 °F 30.2 in SO 3.6 mph 5.2 mph 89% 0 in
05:54 50.7 °F 47.7 °F 30.2 in OSO 3.2 mph 5.2 mph 89% 0 in
05:59 50.7 °F 47.3 °F 30.2 in OSO 3.1 mph 5 mph 88.1% 0 in
06:04 50.7 °F 47.3 °F 30.2 in OSO 2.9 mph 5 mph 88% 0 in
06:09 50.5 °F 47.3 °F 30.2 in OSO 2.9 mph 4 mph 88% 0 in
06:14 50.5 °F 47.1 °F 30.2 in OSO 2.2 mph 5.9 mph 88% 0 in
06:19 50.5 °F 46.9 °F 30.2 in OSO 2 mph 6.2 mph 88% 0 in
06:24 50.4 °F 47.1 °F 30.2 in OSO 3.5 mph 6 mph 88.7% 0 in
06:29 50.4 °F 46.9 °F 30.2 in OSO 4 mph 5 mph 88.3% 0 in
06:34 50.2 °F 47.1 °F 30.2 in OSO 3.7 mph 5 mph 89% 0 in
06:39 50 °F 46.9 °F 30.2 in OSO 3.6 mph 5.4 mph 89% 0 in
06:44 49.8 °F 46.8 °F 30.2 in SO 3.2 mph 6 mph 89% 0 in
06:49 49.8 °F 46.8 °F 30.2 in SO 3.1 mph 5 mph 89% 0 in
06:54 49.8 °F 46.8 °F 30.2 in SO 2.9 mph 5.8 mph 89% 0 in
06:59 49.8 °F 46.9 °F 30.2 in SO 2.9 mph 6 mph 89.7% 0 in
07:04 49.8 °F 46.9 °F 30.2 in OSO 3 mph 5 mph 89.8% 0 in
07:09 49.8 °F 46.8 °F 30.2 in OSO 3.1 mph 5.2 mph 89% 0 in
07:14 49.8 °F 46.8 °F 30.2 in OSO 3.1 mph 5.8 mph 89% 0 in
07:19 49.6 °F 46.6 °F 30.2 in OSO 3.1 mph 6 mph 89% 0 in
07:24 49.6 °F 46.6 °F 30.2 in OSO 3.5 mph 6.2 mph 89% 0 in
07:29 49.6 °F 46.6 °F 30.2 in OSO 3.6 mph 6 mph 89% 0 in
07:34 49.6 °F 46.6 °F 30.2 in SO 3.6 mph 6 mph 89% 0 in
07:39 49.6 °F 46.6 °F 30.2 in SO 3.6 mph 5.2 mph 89% 0 in
07:44 49.6 °F 46.8 °F 30.2 in SO 3.2 mph 5.8 mph 89.6% 0 in
07:49 49.6 °F 46.8 °F 30.2 in OSO 3.1 mph 6 mph 90% 0 in
07:54 49.6 °F 46.8 °F 30.2 in OSO 3.5 mph 5.8 mph 89.9% 0 in
07:59 49.6 °F 46.6 °F 30.2 in OSO 3.6 mph 6 mph 89% 0 in
08:04 49.5 °F 46.4 °F 30.2 in OSO 3.2 mph 6 mph 89% 0 in
08:09 49.5 °F 46.4 °F 30.2 in OSO 3.1 mph 5.8 mph 89% 0 in
08:14 49.5 °F 46.4 °F 30.2 in OSO 3.1 mph 6 mph 89% 0 in
08:19 49.5 °F 46.4 °F 30.2 in OSO 3.1 mph 5 mph 89% 0 in
08:24 49.3 °F 46.2 °F 30.2 in OSO 2.9 mph 5.2 mph 89% 0 in
08:29 49.3 °F 46.2 °F 30.2 in OSO 2.9 mph 5 mph 89% 0 in
08:34 49.3 °F 46.2 °F 30.2 in OSO 2.5 mph 5 mph 89% 0 in
08:39 49.3 °F 46.2 °F 30.2 in OSO 2.4 mph 5 mph 89% 0 in
08:44 49.3 °F 46.2 °F 30.2 in SO 2.4 mph 5 mph 89% 0 in
08:49 49.3 °F 46.2 °F 30.2 in SO 2.4 mph 5 mph 89% 0 in
08:54 49.3 °F 46.2 °F 30.2 in SO 2.4 mph 5 mph 89% 0 in
08:59 49.3 °F 46.2 °F 30.2 in SO 2.4 mph 3.6 mph 89% 0 in
09:04 49.1 °F 46 °F 30.2 in SO 2.1 mph 4 mph 89% 0 in
09:09 49.1 °F 46.2 °F 30.2 in SO 2 mph 5 mph 89.8% 0 in
09:14 49.3 °F 46.4 °F 30.2 in SO 2.3 mph 3.5 mph 90% 0 in
09:19 49.5 °F 46.8 °F 30.2 in SO 2.4 mph 3.6 mph 90.3% 0 in
09:24 49.6 °F 47.1 °F 30.2 in SO 1.9 mph 4 mph 90.9% 0 in
09:29 49.8 °F 46.9 °F 30.2 in SO 1.8 mph   90% 0 in
09:34 50.2 °F 47.3 °F 30.2 in SO 0.4 mph   90% 0 in
09:39 50.4 °F 47.5 °F 30.2 in Calm     90% 0 in
09:44 50.5 °F 47.5 °F 30.2 in Calm   5.2 mph 89.2% 0 in
09:49 50.7 °F 47.5 °F 30.2 in Calm   6.4 mph 88.8% 0 in
09:54 50.7 °F 47.3 °F 30.2 in OSO 2.2 mph 7 mph 88% 0 in
09:59 50.7 °F 47.1 °F 30.2 in OSO 2.9 mph 7 mph 87.6% 0 in
10:04 50.7 °F 47.1 °F 30.2 in OSO 3.7 mph 6.9 mph 87% 0 in
10:09 50.9 °F 47.3 °F 30.2 in OSO 4 mph 7 mph 87% 0 in
10:14 51.1 °F 47.3 °F 30.2 in OSO 3.4 mph 7.4 mph 87% 0 in
10:19 51.1 °F 47.3 °F 30.2 in OSO 3.1 mph 7.6 mph 87% 0 in
10:24 51.3 °F 47.3 °F 30.2 in OSO 3.8 mph 8.1 mph 86.4% 0 in
10:29 51.4 °F 47.3 °F 30.2 in OSO 4 mph 7 mph 86% 0 in
10:34 51.4 °F 47.5 °F 30.2 in SO 4.2 mph 7 mph 86% 0 in
10:39 51.8 °F 47.7 °F 30.2 in SO 4.3 mph 6 mph 86% 0 in
10:44 52.2 °F 47.7 °F 30.2 in OSO 3.2 mph 5.4 mph 85% 0 in
10:49 52.3 °F 47.7 °F 30.2 in SO 2.9 mph 6.2 mph 84.2% 0 in
10:54 52.5 °F 47.7 °F 30.2 in SO 3.4 mph 6.2 mph 83.8% 0 in
10:59 52.5 °F 47.7 °F 30.2 in SO 3.6 mph 6 mph 83% 0 in
11:04 52.9 °F 47.8 °F 30.2 in SSO 3.6 mph 6.2 mph 82.8% 0 in
11:09 53.1 °F 47.8 °F 30.2 in SO 3.6 mph 6 mph 82.3% 0 in
11:14 53.2 °F 47.8 °F 30.2 in SO 3.6 mph 6 mph 82% 0 in
11:19 53.4 °F 48 °F 30.2 in SO 3.6 mph 6 mph 82% 0 in
11:24 53.8 °F 48 °F 30.2 in SO 3.2 mph 8.5 mph 80.8% 0 in
11:29 54 °F 47.8 °F 30.2 in OSO 3.1 mph 9.2 mph 80% 0 in
11:34 54 °F 47.8 °F 30.2 in OSO 4.7 mph 9.2 mph 80% 0 in
11:39 54 °F 47.8 °F 30.2 in OSO 5.2 mph 9 mph 80% 0 in
11:44 54 °F 48 °F 30.2 in SO 5.2 mph 8.1 mph 80% 0 in
11:49 54.1 °F 48 °F 30.2 in OSO 5.2 mph 12.7 mph 80% 0 in
11:54 54.1 °F 47.8 °F 30.2 in OSO 5.2 mph 13 mph 79.1% 0 in
11:59 54.3 °F 48.4 °F 30.2 in OSO 5.2 mph 9 mph 80% 0 in
12:04 54.5 °F 48.6 °F 30.2 in SSO 4.7 mph 7 mph 80% 0 in
12:09 54.9 °F 48.7 °F 30.2 in SSO 4.3 mph 6 mph 80% 0 in
12:14 54.9 °F 48.9 °F 30.2 in Sur 3.9 mph 6.2 mph 80% 0 in
12:19 55 °F 48.7 °F 30.2 in SO 3.6 mph 6.9 mph 79% 0 in
12:24 55.2 °F 48.4 °F 30.2 in OSO 3.8 mph 9.2 mph 77.7% 0 in
12:29 55.6 °F 48.4 °F 30.2 in SO 4 mph 9 mph 77% 0 in
12:34 55.8 °F 48.4 °F 30.2 in SO 4.2 mph 7.4 mph 76.2% 0 in
12:39 55.9 °F 48.6 °F 30.2 in SO 4.3 mph 7.4 mph 76% 0 in
12:44 56.1 °F 48.6 °F 30.2 in SO 4.3 mph 8.1 mph 75.5% 0 in
12:49 56.3 °F 48.6 °F 30.2 in SO 4.3 mph 8.1 mph 75% 0 in
12:54 56.3 °F 48.2 °F 30.2 in SSO 4.5 mph 8 mph 74.4% 0 in
12:59 56.5 °F 48.6 °F 30.2 in SO 4.7 mph 7 mph 74.7% 0 in
13:04 56.5 °F 48.4 °F 30.2 in Oeste 4.5 mph 7 mph 74.1% 0 in
13:09 56.7 °F 48.6 °F 30.2 in Sur 4.3 mph 6.2 mph 74.4% 0 in
13:14 56.8 °F 48.6 °F 30.2 in SSO 3.6 mph 6.2 mph 74% 0 in
13:19 56.8 °F 48.6 °F 30.2 in SO 3.1 mph 6 mph 74% 0 in
13:24 56.8 °F 48.6 °F 30.2 in SSO 3.4 mph 5.9 mph 74% 0 in
13:29 57 °F 48.7 °F 30.2 in SO 3.6 mph 6 mph 74% 0 in
13:34 57 °F 48.7 °F 30.2 in SO 3.3 mph 5.9 mph 73.9% 0 in
13:39 57.2 °F 48.7 °F 30.2 in SSO 3.1 mph 6 mph 73.5% 0 in
13:44 57.4 °F 48.9 °F 30.2 in SO 3.4 mph 6.9 mph 73.2% 0 in
13:49 57.4 °F 48.7 °F 30.2 in SO 3.6 mph 7 mph 73% 0 in
13:54 57.6 °F 48.9 °F 30.2 in Sur 3.3 mph 5.9 mph 73% 0 in
13:59 57.6 °F 49.1 °F 30.2 in SSE 3.1 mph 6.2 mph 73% 0 in
14:04 57.7 °F 49.1 °F 30.2 in SO 3.6 mph 6 mph 73% 0 in
14:09 57.9 °F 49.1 °F 30.2 in SSO 4 mph 6 mph 72.8% 0 in
14:14 57.9 °F 49.3 °F 30.2 in Sur 3.8 mph 6 mph 72.8% 0 in
14:19 57.9 °F 49.3 °F 30.2 in SSO 3.6 mph 6 mph 73% 0 in
14:24 57.9 °F 49.3 °F 30.2 in SSE 3.3 mph 6 mph 72.8% 0 in
14:29 58.1 °F 49.5 °F 30.2 in SE 3.1 mph 6.2 mph 73% 0 in
14:34 58.5 °F 49.6 °F 30.2 in SSE 3.4 mph 6 mph 72.7% 0 in
14:39 58.5 °F 49.6 °F 30.2 in SSE 3.6 mph 6 mph 72.4% 0 in
14:44 58.6 °F 49.6 °F 30.2 in SE 3.3 mph 6 mph 72% 0 in
14:49 58.8 °F 49.5 °F 30.2 in SE 3.1 mph 5.8 mph 71.3% 0 in
14:54 59 °F 49.6 °F 30.2 in SE 3.1 mph 6.9 mph 70.9% 0 in
14:59 59.2 °F 49.5 °F 30.2 in SE 3.1 mph 7 mph 70.4% 0 in
15:04 59.4 °F 49.6 °F 30.2 in SE 3.6 mph 7 mph 70% 0 in
15:09 59.4 °F 49.5 °F 30.2 in SSE 4 mph 6.9 mph 69.7% 0 in
15:14 59.5 °F 49.5 °F 30.2 in SSE 3.8 mph 7 mph 69.3% 0 in
15:19 59.5 °F 49.5 °F 30.2 in SE 3.6 mph 6 mph 69.1% 0 in
15:24 59.7 °F 49.8 °F 30.2 in SE 3.3 mph 5.8 mph 69.6% 0 in
15:29 59.7 °F 49.6 °F 30.1 in SE 3.1 mph 6.2 mph 69.2% 0 in
15:34 60.1 °F 49.8 °F 30.1 in SE 3.4 mph 6.2 mph 69% 0 in
15:39 60.3 °F 49.8 °F 30.1 in SE 3.6 mph 6.9 mph 68.7% 0 in
15:44 60.3 °F 49.5 °F 30.1 in SSE 4 mph 7 mph 67.6% 0 in
15:49 60.3 °F 49.6 °F 30.1 in SSE 4.3 mph 6 mph 67.9% 0 in
15:54 60.4 °F 49.6 °F 30.1 in SSE 4.2 mph 6 mph 67.5% 0 in
15:59 60.4 °F 49.6 °F 30.1 in SSE 4 mph 6 mph 67.6% 0 in
16:04 60.4 °F 49.3 °F 30.1 in SSE 3.8 mph 5.9 mph 66.5% 0 in
16:09 60.6 °F 49.3 °F 30.1 in SSE 3.6 mph 6 mph 66% 0 in
16:14 61 °F 49.5 °F 30.1 in SSE 3.8 mph 6 mph 66% 0 in
16:19 61.2 °F 49.6 °F 30.1 in SSE 4 mph 5.2 mph 65.7% 0 in
16:24 61.3 °F 49.1 °F 30.2 in SSE 3.5 mph 5.8 mph 64.1% 0 in
16:29 61.3 °F 48.6 °F 30.2 in SSE 3.1 mph 6 mph 62.9% 0 in
16:34 61.5 °F 48.4 °F 30.2 in Sur 3.6 mph 6 mph 62% 0 in
16:39 61.5 °F 48.4 °F 30.2 in SSE 4 mph 6 mph 62% 0 in
16:44 61.7 °F 48.6 °F 30.2 in Sur 3.5 mph 5.2 mph 62% 0 in
16:49 61.5 °F 48.4 °F 30.2 in SSE 3.1 mph 5.8 mph 62% 0 in
16:54 61.5 °F 48.4 °F 30.2 in SSE 3.4 mph 6 mph 62.2% 0 in
16:59 61.3 °F 48.6 °F 30.2 in SE 3.6 mph 6 mph 63% 0 in
17:04 61.3 °F 48.9 °F 30.2 in SSE 3.3 mph 5 mph 63.7% 0 in
17:09 61.2 °F 48.9 °F 30.2 in SE 3.1 mph 5 mph 64% 0 in
17:14 61 °F 48.7 °F 30.2 in SE 3.1 mph 5 mph 64% 0 in
17:19 61 °F 48.7 °F 30.2 in SE 3.1 mph 5 mph 64% 0 in
17:24 60.8 °F 48.6 °F 30.2 in SE 2.7 mph 4 mph 64.2% 0 in
17:29 60.6 °F 48.4 °F 30.2 in SE 2.4 mph 3.5 mph 64.1% 0 in
17:34 60.6 °F 48.7 °F 30.2 in SE 2.2 mph 3 mph 65% 0 in
17:39 60.4 °F 48.6 °F 30.2 in SE 2 mph 3.6 mph 65% 0 in
17:44 60.3 °F 48.9 °F 30.2 in SE 2 mph 4 mph 65.8% 0 in
17:49 60.3 °F 49.1 °F 30.2 in SE 2 mph 4 mph 66.5% 0 in
17:54 60.1 °F 49.1 °F 30.2 in SE 2 mph 3.5 mph 67.1% 0 in
17:59 59.7 °F 49.1 °F 30.2 in SE 2 mph 5.2 mph 68% 0 in
18:04 59.4 °F 48.9 °F 30.2 in ESE 2 mph 5.9 mph 68.4% 0 in
18:09 58.6 °F 48.7 °F 30.2 in ESE 2 mph 6 mph 69.6% 0 in
18:14 58.1 °F 48.7 °F 30.2 in ESE 2.9 mph 5.2 mph 70.9% 0 in
18:19 57.7 °F 48.7 °F 30.2 in ESE 3.6 mph 5 mph 72.1% 0 in
18:24 57.6 °F 48.9 °F 30.2 in ESE 2.9 mph 5 mph 73% 0 in
18:29 57.2 °F 48.7 °F 30.2 in ESE 2.4 mph 3.5 mph 73.2% 0 in
18:34 57 °F 48.9 °F 30.2 in ESE 1.1 mph 3 mph 74% 0 in
18:39 57 °F 48.7 °F 30.2 in Calm     74% 0 in
18:44 56.8 °F 48.6 °F 30.2 in Calm     74.1% 0 in
18:49 56.5 °F 48.6 °F 30.2 in Calm   4.7 mph 75% 0 in
18:54 56.1 °F 48.7 °F 30.2 in ENE 1.1 mph 5.2 mph 75.9% 0 in
18:59 55.9 °F 48.7 °F 30.2 in ENE 2 mph 5 mph 76.9% 0 in
19:04 55.8 °F 48.9 °F 30.2 in NE 2.5 mph 5 mph 77.7% 0 in
19:09 55.8 °F 48.9 °F 30.2 in NNE 2.9 mph 4.7 mph 78.2% 0 in
19:14 55.4 °F 49.1 °F 30.2 in NNE 2.6 mph 5 mph 79% 0 in
19:19 55.2 °F 49.1 °F 30.2 in NNE 2.4 mph 5 mph 79.9% 0 in
19:24 55 °F 49.1 °F 30.2 in NNE 2.2 mph 3 mph 80.4% 0 in
19:29 54.9 °F 49.1 °F 30.2 in NNE 2 mph 2 mph 81% 0 in
19:34 54.9 °F 49.1 °F 30.2 in NNE 0.9 mph 2.9 mph 81.4% 0 in
19:39 54.5 °F 49.1 °F 30.2 in Calm   3 mph 82% 0 in
19:44 54.3 °F 49.3 °F 30.2 in NNE 0.8 mph 3 mph 82.9% 0 in
19:49 54.1 °F 49.1 °F 30.2 in NNE 1.4 mph 2.3 mph 83% 0 in
19:54 54 °F 49.3 °F 30.2 in North 0.6 mph 4 mph 84% 0 in
19:59 54 °F 49.5 °F 30.2 in Calm   5 mph 84.7% 0 in
20:04 54 °F 49.6 °F 30.2 in NNO 1.4 mph 5 mph 85% 0 in
20:09 54 °F 49.6 °F 30.2 in NNO 2.4 mph 5 mph 85% 0 in
20:14 53.8 °F 49.5 °F 30.2 in NNO 1.1 mph   85% 0 in
20:19 53.8 °F 49.6 °F 30.2 in Calm   4 mph 85.7% 0 in
20:24 53.6 °F 49.5 °F 30.2 in ESE 0.8 mph 5 mph 86% 0 in
20:29 53.6 °F 49.5 °F 30.2 in ESE 1.4 mph 4 mph 86% 0 in
20:34 53.4 °F 49.3 °F 30.2 in ESE 1.4 mph 2 mph 86% 0 in
20:39 53.4 °F 49.3 °F 30.2 in ESE 1.4 mph   86% 0 in
20:44 53.2 °F 49.3 °F 30.2 in ESE 0.6 mph   86% 0 in
20:49 53.2 °F 49.1 °F 30.2 in Calm   4.6 mph 86% 0 in
20:54 53.1 °F 49.1 °F 30.2 in SSO 1.1 mph 5 mph 86.4% 0 in
20:59 52.9 °F 49.1 °F 30.2 in SSO 2 mph 4 mph 87% 0 in
21:04 52.9 °F 49.1 °F 30.2 in SSO 1.6 mph 3 mph 87% 0 in
21:09 52.9 °F 49.1 °F 30.2 in SO 1.4 mph 3.6 mph 87% 0 in
21:14 52.9 °F 49.3 °F 30.2 in SO 1.6 mph 4 mph 87.5% 0 in
21:19 53.1 °F 49.6 °F 30.2 in SO 1.8 mph 5 mph 88% 0 in
21:24 53.1 °F 49.6 °F 30.2 in SO 1.9 mph 5 mph 87.9% 0 in
21:29 53.1 °F 49.3 °F 30.2 in SO 2 mph 2 mph 87% 0 in
21:34 53.1 °F 49.3 °F 30.2 in Sur 0.9 mph 4.6 mph 87% 0 in
21:39 53.1 °F 49.1 °F 30.2 in Calm   5 mph 86.8% 0 in
21:44 52.7 °F 48.6 °F 30.2 in SSE 1.6 mph 5.2 mph 86% 0 in
21:49 52.3 °F 48.4 °F 30.2 in SSE 2.9 mph 5.2 mph 86.1% 0 in
21:54 52.2 °F 48.4 °F 30.2 in SSE 3.3 mph 5.2 mph 87% 0 in
21:59 52 °F 48.2 °F 30.2 in SSO 3.6 mph 5 mph 87% 0 in
22:04 52 °F 48.2 °F 30.2 in SO 3.2 mph 5 mph 87% 0 in
22:09 52 °F 48.2 °F 30.2 in SSO 2.9 mph 5 mph 87% 0 in
22:14 52 °F 48.2 °F 30.2 in SO 3 mph 5.8 mph 87% 0 in
22:19 52 °F 48 °F 30.2 in SO 3.1 mph 6 mph 86.2% 0 in
22:24 52 °F 47.8 °F 30.2 in SSO 3.1 mph 5.2 mph 86% 0 in
22:29 52 °F 47.8 °F 30.2 in Sur 3.1 mph 6.2 mph 85.6% 0 in
22:34 52 °F 47.7 °F 30.2 in Sur 3.6 mph 6.4 mph 85% 0 in
22:39 51.6 °F 47.3 °F 30.2 in Sur 4 mph 7 mph 85% 0 in
22:44 51.6 °F 47.3 °F 30.2 in Sur 4.2 mph 6.2 mph 85% 0 in
22:49 51.6 °F 47.3 °F 30.2 in SO 4.3 mph 6 mph 85% 0 in
22:54 51.6 °F 47.5 °F 30.2 in SSO 3.9 mph 6.9 mph 85.4% 0 in
22:59 51.6 °F 47.7 °F 30.2 in SSO 3.6 mph 7 mph 86% 0 in
23:04 51.6 °F 47.7 °F 30.2 in SO 3.3 mph 6 mph 86% 0 in
23:09 51.6 °F 47.7 °F 30.2 in SO 3.1 mph 5 mph 86% 0 in
23:14 51.6 °F 47.7 °F 30.2 in SO 3 mph 5 mph 86% 0 in
23:19 51.4 °F 47.5 °F 30.2 in SO 2.9 mph 5 mph 86% 0 in
23:24 51.3 °F 47.5 °F 30.2 in SO 2.9 mph 5.9 mph 86.5% 0 in
23:29 51.3 °F 47.7 °F 30.2 in SO 2.9 mph 6 mph 87% 0 in
23:34 51.4 °F 47.7 °F 30.2 in SO 3.3 mph 6 mph 87% 0 in
23:39 51.4 °F 47.7 °F 30.2 in SSO 3.6 mph 5 mph 87% 0 in
23:44 51.4 °F 47.8 °F 30.2 in Sur 3.6 mph 5.4 mph 87% 0 in
23:49 51.4 °F 47.7 °F 30.2 in SSE 3.6 mph 6.2 mph 87% 0 in
23:54 51.4 °F 47.7 °F 30.2 in SSE 4 mph 6.9 mph 87% 0 in
23:59 51.3 °F 47.5 °F 30.2 in SSE 4.3 mph 7 mph 86.8% 0 in
Murcia-Puente Tocinos, España
Compliments of Weather Underground - 3 mb

La estación de MeteoMurcia.com, publica sus datos en los siguientes proyectos:

Weather Underground PWS IMURCIAP2 Meteoclimatic www.awekas.at

W3Counter
Web Analytics